KCDW/CDW METAR and TAF weather

Enter ICAO airport designator
Station Type Date Time Source
KCDW METAR 2018/04/20 07:53 UTC NOAA

KCDW 200753Z AUTO 29005KT 10SM BKN041 02/M05 A3007 RMK AO2 SLP189 T00171050


Station Type Date Time Source
KCDW Decoded METAR 2018/04/20 07:53 UTC NOAA

CALDWELL ESSEX COUNTY AIRPORT , NJ, United States (KCDW) 40-53N 074-17W 64M
Apr 20, 2018 - 03:53 AM EDT / 2018.04.20 0753 UTC
Wind: from the WNW (290 degrees) at 6 MPH (5 KT):0
Visibility: 10 mile(s):0
Sky conditions: mostly cloudy
Temperature: 35.1 F (1.7 C)
Dew Point: 23.0 F (-5.0 C)
Relative Humidity: 61%
Pressure (altimeter): 30.07 in. Hg (1018 hPa)
ob: KCDW 200753Z AUTO 29005KT 10SM BKN041 02/M05 A3007 RMK AO2 SLP189 T00171050
cycle: 8

Station Type Date Time Source
KCDW TAF UTC NOAA

Error!


Example: see airport list